sensor_id;sensor_type;location;lat;lon;timestamp;P1;durP1;ratioP1;P2;durP2;ratioP2
18610;SDS011;9435;52.122;5.502;2023-09-19T00:01:34;11.73;;;2.13;;
18610;SDS011;9435;52.122;5.502;2023-09-19T00:04:03;9.10;;;1.80;;
18610;SDS011;9435;52.122;5.502;2023-09-19T00:06:34;7.28;;;2.13;;
18610;SDS011;9435;52.122;5.502;2023-09-19T00:09:02;8.77;;;1.95;;
18610;SDS011;9435;52.122;5.502;2023-09-19T00:11:29;8.43;;;1.98;;
18610;SDS011;9435;52.122;5.502;2023-09-19T00:13:57;9.60;;;2.17;;
18610;SDS011;9435;52.122;5.502;2023-09-19T00:16:25;9.05;;;2.13;;
18610;SDS011;9435;52.122;5.502;2023-09-19T00:18:52;9.93;;;1.98;;
18610;SDS011;9435;52.122;5.502;2023-09-19T00:21:21;5.47;;;2.05;;
18610;SDS011;9435;52.122;5.502;2023-09-19T00:23:49;8.27;;;2.10;;
18610;SDS011;9435;52.122;5.502;2023-09-19T00:26:16;5.53;;;1.90;;
18610;SDS011;9435;52.122;5.502;2023-09-19T00:28:46;11.13;;;2.42;;
18610;SDS011;9435;52.122;5.502;2023-09-19T00:31:13;7.80;;;2.25;;
18610;SDS011;9435;52.122;5.502;2023-09-19T00:33:40;7.30;;;2.20;;
18610;SDS011;9435;52.122;5.502;2023-09-19T00:36:07;7.15;;;2.05;;
18610;SDS011;9435;52.122;5.502;2023-09-19T00:38:36;10.85;;;2.28;;
18610;SDS011;9435;52.122;5.502;2023-09-19T00:41:03;6.35;;;1.90;;
18610;SDS011;9435;52.122;5.502;2023-09-19T00:43:30;8.27;;;1.92;;
18610;SDS011;9435;52.122;5.502;2023-09-19T00:45:59;5.38;;;1.85;;
18610;SDS011;9435;52.122;5.502;2023-09-19T00:48:28;8.15;;;2.08;;
18610;SDS011;9435;52.122;5.502;2023-09-19T00:50:55;8.98;;;2.00;;
18610;SDS011;9435;52.122;5.502;2023-09-19T00:53:25;8.65;;;2.30;;
18610;SDS011;9435;52.122;5.502;2023-09-19T00:55:54;11.48;;;2.50;;
18610;SDS011;9435;52.122;5.502;2023-09-19T00:58:22;6.65;;;2.15;;
18610;SDS011;9435;52.122;5.502;2023-09-19T01:00:50;11.10;;;2.42;;
18610;SDS011;9435;52.122;5.502;2023-09-19T01:03:18;7.13;;;2.25;;
18610;SDS011;9435;52.122;5.502;2023-09-19T01:05:45;9.98;;;2.60;;
18610;SDS011;9435;52.122;5.502;2023-09-19T01:08:13;10.50;;;2.28;;
18610;SDS011;9435;52.122;5.502;2023-09-19T01:10:42;8.20;;;2.55;;
18610;SDS011;9435;52.122;5.502;2023-09-19T01:13:21;8.52;;;2.60;;
18610;SDS011;9435;52.122;5.502;2023-09-19T01:15:58;10.63;;;2.78;;
18610;SDS011;9435;52.122;5.502;2023-09-19T01:18:32;12.15;;;2.88;;
18610;SDS011;9435;52.122;5.502;2023-09-19T01:21:08;10.45;;;2.47;;
18610;SDS011;9435;52.122;5.502;2023-09-19T01:26:45;11.35;;;3.05;;
18610;SDS011;9435;52.122;5.502;2023-09-19T01:29:36;10.82;;;2.95;;
18610;SDS011;9435;52.122;5.502;2023-09-19T01:32:08;9.45;;;3.00;;
18610;SDS011;9435;52.122;5.502;2023-09-19T01:34:45;10.35;;;3.22;;
18610;SDS011;9435;52.122;5.502;2023-09-19T01:37:13;11.25;;;3.72;;
18610;SDS011;9435;52.122;5.502;2023-09-19T01:39:45;13.23;;;3.60;;
18610;SDS011;9435;52.122;5.502;2023-09-19T01:42:18;9.68;;;3.33;;
18610;SDS011;9435;52.122;5.502;2023-09-19T01:44:57;18.13;;;3.83;;
18610;SDS011;9435;52.122;5.502;2023-09-19T01:47:35;15.13;;;3.75;;
18610;SDS011;9435;52.122;5.502;2023-09-19T01:50:11;18.05;;;4.05;;
18610;SDS011;9435;52.122;5.502;2023-09-19T01:52:46;16.73;;;3.17;;
18610;SDS011;9435;52.122;5.502;2023-09-19T01:55:15;16.80;;;4.00;;
18610;SDS011;9435;52.122;5.502;2023-09-19T01:57:48;13.75;;;3.60;;
18610;SDS011;9435;52.122;5.502;2023-09-19T02:00:20;14.38;;;4.10;;
18610;SDS011;9435;52.122;5.502;2023-09-19T02:02:51;15.27;;;4.03;;
18610;SDS011;9435;52.122;5.502;2023-09-19T02:05:24;15.90;;;3.88;;
18610;SDS011;9435;52.122;5.502;2023-09-19T02:07:52;14.95;;;3.40;;
18610;SDS011;9435;52.122;5.502;2023-09-19T02:10:21;10.63;;;3.10;;
18610;SDS011;9435;52.122;5.502;2023-09-19T02:12:48;13.57;;;3.38;;
18610;SDS011;9435;52.122;5.502;2023-09-19T02:15:16;15.07;;;3.35;;
18610;SDS011;9435;52.122;5.502;2023-09-19T02:17:43;13.95;;;3.33;;
18610;SDS011;9435;52.122;5.502;2023-09-19T02:20:12;14.52;;;3.15;;
18610;SDS011;9435;52.122;5.502;2023-09-19T02:22:40;14.55;;;3.22;;
18610;SDS011;9435;52.122;5.502;2023-09-19T02:25:08;14.30;;;3.10;;
18610;SDS011;9435;52.122;5.502;2023-09-19T02:27:36;13.57;;;3.05;;
18610;SDS011;9435;52.122;5.502;2023-09-19T02:30:03;12.45;;;2.70;;
18610;SDS011;9435;52.122;5.502;2023-09-19T02:32:31;11.82;;;2.60;;
18610;SDS011;9435;52.122;5.502;2023-09-19T02:35:00;11.80;;;2.67;;
18610;SDS011;9435;52.122;5.502;2023-09-19T02:37:30;15.77;;;3.10;;
18610;SDS011;9435;52.122;5.502;2023-09-19T02:39:57;12.40;;;2.53;;
18610;SDS011;9435;52.122;5.502;2023-09-19T02:42:25;12.27;;;2.70;;
18610;SDS011;9435;52.122;5.502;2023-09-19T02:44:52;15.27;;;2.70;;
18610;SDS011;9435;52.122;5.502;2023-09-19T02:47:19;15.80;;;2.90;;
18610;SDS011;9435;52.122;5.502;2023-09-19T02:49:46;14.23;;;2.90;;
18610;SDS011;9435;52.122;5.502;2023-09-19T02:52:13;11.55;;;2.67;;
18610;SDS011;9435;52.122;5.502;2023-09-19T02:54:42;16.33;;;2.80;;
18610;SDS011;9435;52.122;5.502;2023-09-19T02:57:10;15.40;;;3.00;;
18610;SDS011;9435;52.122;5.502;2023-09-19T02:59:39;18.85;;;2.97;;
18610;SDS011;9435;52.122;5.502;2023-09-19T03:02:07;13.93;;;3.03;;
18610;SDS011;9435;52.122;5.502;2023-09-19T03:04:34;13.82;;;2.70;;
18610;SDS011;9435;52.122;5.502;2023-09-19T03:07:02;13.63;;;2.70;;
18610;SDS011;9435;52.122;5.502;2023-09-19T03:09:29;11.35;;;2.50;;
18610;SDS011;9435;52.122;5.502;2023-09-19T03:11:58;10.52;;;2.65;;
18610;SDS011;9435;52.122;5.502;2023-09-19T03:14:25;14.52;;;2.72;;
18610;SDS011;9435;52.122;5.502;2023-09-19T03:16:55;13.80;;;2.45;;
18610;SDS011;9435;52.122;5.502;2023-09-19T03:19:22;12.60;;;2.67;;
18610;SDS011;9435;52.122;5.502;2023-09-19T03:21:51;14.88;;;2.70;;
18610;SDS011;9435;52.122;5.502;2023-09-19T03:24:18;13.18;;;2.40;;
18610;SDS011;9435;52.122;5.502;2023-09-19T03:26:45;17.80;;;2.70;;
18610;SDS011;9435;52.122;5.502;2023-09-19T03:29:14;13.63;;;2.55;;
18610;SDS011;9435;52.122;5.502;2023-09-19T03:31:42;14.90;;;2.80;;
18610;SDS011;9435;52.122;5.502;2023-09-19T03:34:09;14.85;;;2.55;;
18610;SDS011;9435;52.122;5.502;2023-09-19T03:36:36;13.05;;;2.80;;
18610;SDS011;9435;52.122;5.502;2023-09-19T03:39:03;13.02;;;2.67;;
18610;SDS011;9435;52.122;5.502;2023-09-19T03:41:31;9.98;;;2.47;;
18610;SDS011;9435;52.122;5.502;2023-09-19T03:44:01;13.95;;;2.38;;
18610;SDS011;9435;52.122;5.502;2023-09-19T03:46:30;14.57;;;2.47;;
18610;SDS011;9435;52.122;5.502;2023-09-19T03:48:57;15.57;;;2.83;;
18610;SDS011;9435;52.122;5.502;2023-09-19T03:51:24;13.23;;;2.55;;
18610;SDS011;9435;52.122;5.502;2023-09-19T03:53:51;12.43;;;2.58;;
18610;SDS011;9435;52.122;5.502;2023-09-19T03:56:18;16.38;;;2.70;;
18610;SDS011;9435;52.122;5.502;2023-09-19T03:58:45;15.15;;;2.50;;
18610;SDS011;9435;52.122;5.502;2023-09-19T04:01:12;14.60;;;2.88;;
18610;SDS011;9435;52.122;5.502;2023-09-19T04:03:43;14.43;;;2.95;;
18610;SDS011;9435;52.122;5.502;2023-09-19T04:06:13;15.43;;;3.13;;
18610;SDS011;9435;52.122;5.502;2023-09-19T04:08:41;12.13;;;2.78;;
18610;SDS011;9435;52.122;5.502;2023-09-19T04:11:09;15.43;;;2.75;;
18610;SDS011;9435;52.122;5.502;2023-09-19T04:13:36;16.73;;;3.47;;
18610;SDS011;9435;52.122;5.502;2023-09-19T04:16:05;16.20;;;2.70;;
18610;SDS011;9435;52.122;5.502;2023-09-19T04:18:33;13.50;;;2.30;;
18610;SDS011;9435;52.122;5.502;2023-09-19T04:21:04;18.88;;;2.65;;
18610;SDS011;9435;52.122;5.502;2023-09-19T04:23:32;13.38;;;2.70;;
18610;SDS011;9435;52.122;5.502;2023-09-19T04:25:59;14.35;;;2.60;;
18610;SDS011;9435;52.122;5.502;2023-09-19T04:28:26;17.10;;;2.72;;
18610;SDS011;9435;52.122;5.502;2023-09-19T04:30:54;18.67;;;3.15;;
18610;SDS011;9435;52.122;5.502;2023-09-19T04:33:21;9.63;;;2.50;;
18610;SDS011;9435;52.122;5.502;2023-09-19T04:35:49;14.27;;;2.80;;
18610;SDS011;9435;52.122;5.502;2023-09-19T04:38:18;13.45;;;2.63;;
18610;SDS011;9435;52.122;5.502;2023-09-19T04:40:45;14.80;;;2.92;;
18610;SDS011;9435;52.122;5.502;2023-09-19T04:43:14;10.50;;;2.70;;
18610;SDS011;9435;52.122;5.502;2023-09-19T04:45:42;13.55;;;2.55;;
18610;SDS011;9435;52.122;5.502;2023-09-19T04:48:09;12.27;;;2.80;;
18610;SDS011;9435;52.122;5.502;2023-09-19T04:50:37;15.48;;;2.83;;
18610;SDS011;9435;52.122;5.502;2023-09-19T04:53:04;13.15;;;2.70;;
18610;SDS011;9435;52.122;5.502;2023-09-19T04:55:33;15.05;;;2.60;;
18610;SDS011;9435;52.122;5.502;2023-09-19T04:58:05;16.65;;;2.92;;
18610;SDS011;9435;52.122;5.502;2023-09-19T05:00:32;12.32;;;2.58;;
18610;SDS011;9435;52.122;5.502;2023-09-19T05:03:00;13.98;;;2.53;;
18610;SDS011;9435;52.122;5.502;2023-09-19T05:05:29;13.35;;;2.70;;
18610;SDS011;9435;52.122;5.502;2023-09-19T05:07:56;14.82;;;2.40;;
18610;SDS011;9435;52.122;5.502;2023-09-19T05:10:24;13.35;;;2.70;;
18610;SDS011;9435;52.122;5.502;2023-09-19T05:12:54;12.05;;;2.70;;
18610;SDS011;9435;52.122;5.502;2023-09-19T05:15:21;10.65;;;2.40;;
18610;SDS011;9435;52.122;5.502;2023-09-19T05:17:49;14.38;;;2.78;;
18610;SDS011;9435;52.122;5.502;2023-09-19T05:20:17;13.63;;;2.55;;
18610;SDS011;9435;52.122;5.502;2023-09-19T05:22:50;16.40;;;2.72;;
18610;SDS011;9435;52.122;5.502;2023-09-19T05:25:23;16.55;;;2.58;;
18610;SDS011;9435;52.122;5.502;2023-09-19T05:27:56;11.15;;;2.33;;
18610;SDS011;9435;52.122;5.502;2023-09-19T05:30:24;14.48;;;2.55;;
18610;SDS011;9435;52.122;5.502;2023-09-19T05:32:52;11.35;;;2.33;;
18610;SDS011;9435;52.122;5.502;2023-09-19T05:35:21;17.45;;;2.55;;
18610;SDS011;9435;52.122;5.502;2023-09-19T05:37:48;11.43;;;2.63;;
18610;SDS011;9435;52.122;5.502;2023-09-19T05:40:17;15.95;;;2.38;;
18610;SDS011;9435;52.122;5.502;2023-09-19T05:42:44;16.98;;;2.85;;
18610;SDS011;9435;52.122;5.502;2023-09-19T05:45:13;13.93;;;2.40;;
18610;SDS011;9435;52.122;5.502;2023-09-19T05:47:44;9.90;;;2.10;;
18610;SDS011;9435;52.122;5.502;2023-09-19T05:50:12;12.93;;;2.80;;
18610;SDS011;9435;52.122;5.502;2023-09-19T05:52:40;14.68;;;2.45;;
18610;SDS011;9435;52.122;5.502;2023-09-19T05:55:09;12.15;;;2.38;;
18610;SDS011;9435;52.122;5.502;2023-09-19T05:57:36;20.08;;;2.83;;
18610;SDS011;9435;52.122;5.502;2023-09-19T06:00:05;14.80;;;2.55;;
18610;SDS011;9435;52.122;5.502;2023-09-19T06:02:36;15.60;;;2.50;;
18610;SDS011;9435;52.122;5.502;2023-09-19T06:05:05;12.23;;;2.42;;
18610;SDS011;9435;52.122;5.502;2023-09-19T06:07:35;15.32;;;2.83;;
18610;SDS011;9435;52.122;5.502;2023-09-19T06:10:02;9.00;;;2.42;;
18610;SDS011;9435;52.122;5.502;2023-09-19T06:12:32;15.65;;;2.83;;
18610;SDS011;9435;52.122;5.502;2023-09-19T06:15:02;15.57;;;2.15;;
18610;SDS011;9435;52.122;5.502;2023-09-19T06:17:33;13.13;;;2.35;;
18610;SDS011;9435;52.122;5.502;2023-09-19T06:20:04;15.07;;;2.40;;
18610;SDS011;9435;52.122;5.502;2023-09-19T06:22:37;12.43;;;2.50;;
18610;SDS011;9435;52.122;5.502;2023-09-19T06:25:06;11.23;;;2.38;;
18610;SDS011;9435;52.122;5.502;2023-09-19T06:27:36;10.70;;;2.28;;
18610;SDS011;9435;52.122;5.502;2023-09-19T06:30:05;13.77;;;2.60;;
18610;SDS011;9435;52.122;5.502;2023-09-19T06:32:33;16.40;;;2.42;;
18610;SDS011;9435;52.122;5.502;2023-09-19T06:35:01;12.55;;;2.28;;
18610;SDS011;9435;52.122;5.502;2023-09-19T06:37:29;15.38;;;2.50;;
18610;SDS011;9435;52.122;5.502;2023-09-19T06:39:56;13.80;;;2.58;;
18610;SDS011;9435;52.122;5.502;2023-09-19T06:42:23;17.95;;;3.03;;
18610;SDS011;9435;52.122;5.502;2023-09-19T06:44:51;13.73;;;2.63;;
18610;SDS011;9435;52.122;5.502;2023-09-19T06:47:18;18.45;;;2.92;;
18610;SDS011;9435;52.122;5.502;2023-09-19T06:49:46;16.63;;;2.33;;
18610;SDS011;9435;52.122;5.502;2023-09-19T06:52:13;17.90;;;3.22;;
18610;SDS011;9435;52.122;5.502;2023-09-19T06:54:42;16.30;;;2.58;;
18610;SDS011;9435;52.122;5.502;2023-09-19T06:57:09;16.48;;;3.20;;
18610;SDS011;9435;52.122;5.502;2023-09-19T06:59:36;14.27;;;2.92;;
18610;SDS011;9435;52.122;5.502;2023-09-19T07:02:03;13.30;;;2.47;;
18610;SDS011;9435;52.122;5.502;2023-09-19T07:04:32;22.35;;;2.85;;
18610;SDS011;9435;52.122;5.502;2023-09-19T07:06:59;17.30;;;2.75;;
18610;SDS011;9435;52.122;5.502;2023-09-19T07:09:26;15.10;;;2.70;;
18610;SDS011;9435;52.122;5.502;2023-09-19T07:11:55;19.85;;;2.78;;
18610;SDS011;9435;52.122;5.502;2023-09-19T07:14:22;13.13;;;2.58;;
18610;SDS011;9435;52.122;5.502;2023-09-19T07:16:49;19.48;;;2.78;;
18610;SDS011;9435;52.122;5.502;2023-09-19T07:19:17;16.17;;;2.70;;
18610;SDS011;9435;52.122;5.502;2023-09-19T07:21:44;17.38;;;2.95;;
18610;SDS011;9435;52.122;5.502;2023-09-19T07:24:12;15.63;;;2.83;;
18610;SDS011;9435;52.122;5.502;2023-09-19T07:26:39;11.90;;;2.60;;
18610;SDS011;9435;52.122;5.502;2023-09-19T07:29:08;11.48;;;2.45;;
18610;SDS011;9435;52.122;5.502;2023-09-19T07:31:35;17.70;;;2.70;;
18610;SDS011;9435;52.122;5.502;2023-09-19T07:34:02;12.73;;;2.67;;
18610;SDS011;9435;52.122;5.502;2023-09-19T07:36:30;11.95;;;2.63;;
18610;SDS011;9435;52.122;5.502;2023-09-19T07:38:58;17.73;;;2.78;;
18610;SDS011;9435;52.122;5.502;2023-09-19T07:41:25;12.73;;;2.30;;
18610;SDS011;9435;52.122;5.502;2023-09-19T07:43:52;9.43;;;2.17;;
18610;SDS011;9435;52.122;5.502;2023-09-19T07:46:21;14.52;;;2.67;;
18610;SDS011;9435;52.122;5.502;2023-09-19T07:48:49;13.52;;;2.72;;
18610;SDS011;9435;52.122;5.502;2023-09-19T07:51:17;15.02;;;2.40;;
18610;SDS011;9435;52.122;5.502;2023-09-19T07:53:44;15.82;;;2.45;;
18610;SDS011;9435;52.122;5.502;2023-09-19T07:56:11;14.23;;;2.80;;
18610;SDS011;9435;52.122;5.502;2023-09-19T07:58:39;12.82;;;2.50;;
18610;SDS011;9435;52.122;5.502;2023-09-19T08:01:08;17.90;;;2.83;;
18610;SDS011;9435;52.122;5.502;2023-09-19T08:03:39;14.80;;;2.78;;
18610;SDS011;9435;52.122;5.502;2023-09-19T08:06:08;10.00;;;2.17;;
18610;SDS011;9435;52.122;5.502;2023-09-19T08:08:35;20.42;;;3.00;;
18610;SDS011;9435;52.122;5.502;2023-09-19T08:11:03;18.40;;;2.90;;
18610;SDS011;9435;52.122;5.502;2023-09-19T08:13:36;15.48;;;2.92;;
18610;SDS011;9435;52.122;5.502;2023-09-19T08:16:06;12.48;;;2.50;;
18610;SDS011;9435;52.122;5.502;2023-09-19T08:18:33;13.98;;;2.42;;
18610;SDS011;9435;52.122;5.502;2023-09-19T08:21:02;14.23;;;2.78;;
18610;SDS011;9435;52.122;5.502;2023-09-19T08:23:29;16.17;;;3.03;;
18610;SDS011;9435;52.122;5.502;2023-09-19T08:25:58;15.85;;;2.85;;
18610;SDS011;9435;52.122;5.502;2023-09-19T08:28:28;17.08;;;2.80;;
18610;SDS011;9435;52.122;5.502;2023-09-19T08:30:55;14.52;;;2.75;;
18610;SDS011;9435;52.122;5.502;2023-09-19T08:33:23;18.63;;;2.90;;
18610;SDS011;9435;52.122;5.502;2023-09-19T08:35:50;15.68;;;3.40;;
18610;SDS011;9435;52.122;5.502;2023-09-19T08:38:19;13.93;;;2.50;;
18610;SDS011;9435;52.122;5.502;2023-09-19T08:40:46;19.00;;;3.35;;
18610;SDS011;9435;52.122;5.502;2023-09-19T08:43:13;19.65;;;3.25;;
18610;SDS011;9435;52.122;5.502;2023-09-19T08:45:40;18.65;;;3.50;;
18610;SDS011;9435;52.122;5.502;2023-09-19T08:48:17;14.18;;;2.70;;
18610;SDS011;9435;52.122;5.502;2023-09-19T08:50:50;16.08;;;2.75;;
18610;SDS011;9435;52.122;5.502;2023-09-19T08:53:26;22.30;;;3.50;;
18610;SDS011;9435;52.122;5.502;2023-09-19T08:55:57;18.45;;;3.30;;
18610;SDS011;9435;52.122;5.502;2023-09-19T08:58:28;13.52;;;2.60;;
18610;SDS011;9435;52.122;5.502;2023-09-19T09:01:00;19.15;;;2.80;;
18610;SDS011;9435;52.122;5.502;2023-09-19T09:03:29;19.15;;;2.97;;
18610;SDS011;9435;52.122;5.502;2023-09-19T09:06:00;14.48;;;2.55;;
18610;SDS011;9435;52.122;5.502;2023-09-19T09:08:30;15.80;;;2.83;;
18610;SDS011;9435;52.122;5.502;2023-09-19T09:10:58;14.82;;;3.00;;
18610;SDS011;9435;52.122;5.502;2023-09-19T09:13:26;14.25;;;2.90;;
18610;SDS011;9435;52.122;5.502;2023-09-19T09:15:53;17.35;;;2.90;;
18610;SDS011;9435;52.122;5.502;2023-09-19T09:18:20;12.90;;;3.10;;
18610;SDS011;9435;52.122;5.502;2023-09-19T09:20:49;11.63;;;2.33;;
18610;SDS011;9435;52.122;5.502;2023-09-19T09:23:16;14.40;;;2.88;;
18610;SDS011;9435;52.122;5.502;2023-09-19T09:25:48;13.68;;;2.50;;
18610;SDS011;9435;52.122;5.502;2023-09-19T09:28:20;14.68;;;2.45;;
18610;SDS011;9435;52.122;5.502;2023-09-19T09:30:48;18.83;;;2.55;;
18610;SDS011;9435;52.122;5.502;2023-09-19T09:33:15;15.93;;;2.65;;
18610;SDS011;9435;52.122;5.502;2023-09-19T09:35:50;15.82;;;2.50;;
18610;SDS011;9435;52.122;5.502;2023-09-19T09:38:18;15.50;;;2.58;;
18610;SDS011;9435;52.122;5.502;2023-09-19T09:40:47;12.00;;;2.30;;
18610;SDS011;9435;52.122;5.502;2023-09-19T09:43:30;19.55;;;2.58;;
18610;SDS011;9435;52.122;5.502;2023-09-19T09:46:08;14.52;;;2.60;;
18610;SDS011;9435;52.122;5.502;2023-09-19T09:48:57;18.10;;;2.88;;
18610;SDS011;9435;52.122;5.502;2023-09-19T09:51:44;19.60;;;3.22;;
18610;SDS011;9435;52.122;5.502;2023-09-19T09:54:22;17.48;;;3.33;;
18610;SDS011;9435;52.122;5.502;2023-09-19T09:56:54;16.75;;;2.90;;
18610;SDS011;9435;52.122;5.502;2023-09-19T10:02:11;15.85;;;2.30;;
18610;SDS011;9435;52.122;5.502;2023-09-19T10:04:41;14.95;;;2.72;;
18610;SDS011;9435;52.122;5.502;2023-09-19T10:07:26;13.57;;;2.53;;
18610;SDS011;9435;52.122;5.502;2023-09-19T10:09:56;15.00;;;2.55;;
18610;SDS011;9435;52.122;5.502;2023-09-19T10:12:36;22.63;;;2.80;;
18610;SDS011;9435;52.122;5.502;2023-09-19T10:15:08;14.98;;;2.40;;
18610;SDS011;9435;52.122;5.502;2023-09-19T10:17:42;12.30;;;2.60;;
18610;SDS011;9435;52.122;5.502;2023-09-19T10:20:12;14.68;;;2.53;;
18610;SDS011;9435;52.122;5.502;2023-09-19T10:23:00;16.08;;;2.88;;
18610;SDS011;9435;52.122;5.502;2023-09-19T10:25:34;15.60;;;2.40;;
18610;SDS011;9435;52.122;5.502;2023-09-19T10:28:05;13.32;;;2.42;;
18610;SDS011;9435;52.122;5.502;2023-09-19T10:30:36;13.85;;;2.10;;
18610;SDS011;9435;52.122;5.502;2023-09-19T10:33:07;14.32;;;2.38;;
18610;SDS011;9435;52.122;5.502;2023-09-19T10:35:35;12.23;;;2.17;;
18610;SDS011;9435;52.122;5.502;2023-09-19T10:38:06;11.35;;;2.10;;
18610;SDS011;9435;52.122;5.502;2023-09-19T10:40:34;9.18;;;2.00;;
18610;SDS011;9435;52.122;5.502;2023-09-19T10:43:07;15.32;;;2.67;;
18610;SDS011;9435;52.122;5.502;2023-09-19T10:45:38;12.07;;;2.30;;
18610;SDS011;9435;52.122;5.502;2023-09-19T10:48:06;12.20;;;2.50;;
18610;SDS011;9435;52.122;5.502;2023-09-19T10:50:35;13.23;;;2.30;;
18610;SDS011;9435;52.122;5.502;2023-09-19T10:53:10;13.07;;;2.50;;
18610;SDS011;9435;52.122;5.502;2023-09-19T10:55:40;13.80;;;2.53;;
18610;SDS011;9435;52.122;5.502;2023-09-19T10:58:20;12.88;;;2.30;;
18610;SDS011;9435;52.122;5.502;2023-09-19T11:00:54;13.63;;;2.72;;
18610;SDS011;9435;52.122;5.502;2023-09-19T11:03:22;12.30;;;2.30;;
18610;SDS011;9435;52.122;5.502;2023-09-19T11:06:05;13.85;;;2.72;;
18610;SDS011;9435;52.122;5.502;2023-09-19T11:11:47;8.35;;;2.40;;
18610;SDS011;9435;52.122;5.502;2023-09-19T11:14:39;13.23;;;2.60;;
18610;SDS011;9435;52.122;5.502;2023-09-19T11:20:21;12.75;;;2.70;;
18610;SDS011;9435;52.122;5.502;2023-09-19T11:23:21;14.95;;;2.53;;
18610;SDS011;9435;52.122;5.502;2023-09-19T11:25:52;11.05;;;2.70;;
18610;SDS011;9435;52.122;5.502;2023-09-19T11:28:29;9.38;;;2.13;;
18610;SDS011;9435;52.122;5.502;2023-09-19T11:30:59;9.40;;;2.53;;
18610;SDS011;9435;52.122;5.502;2023-09-19T11:33:46;12.45;;;2.35;;
18610;SDS011;9435;52.122;5.502;2023-09-19T11:36:15;10.18;;;2.20;;
18610;SDS011;9435;52.122;5.502;2023-09-19T11:38:57;10.50;;;2.42;;
18610;SDS011;9435;52.122;5.502;2023-09-19T11:41:39;7.28;;;1.73;;
18610;SDS011;9435;52.122;5.502;2023-09-19T11:47:00;8.63;;;1.98;;
18610;SDS011;9435;52.122;5.502;2023-09-19T11:49:29;6.15;;;1.95;;
18610;SDS011;9435;52.122;5.502;2023-09-19T11:51:58;12.52;;;2.08;;
18610;SDS011;9435;52.122;5.502;2023-09-19T11:54:29;9.80;;;1.80;;
18610;SDS011;9435;52.122;5.502;2023-09-19T11:56:57;11.65;;;2.10;;
18610;SDS011;9435;52.122;5.502;2023-09-19T11:59:26;6.68;;;1.75;;
18610;SDS011;9435;52.122;5.502;2023-09-19T12:01:55;10.43;;;1.95;;
18610;SDS011;9435;52.122;5.502;2023-09-19T12:04:37;9.32;;;1.80;;
18610;SDS011;9435;52.122;5.502;2023-09-19T12:07:06;5.97;;;1.65;;
18610;SDS011;9435;52.122;5.502;2023-09-19T12:09:38;5.97;;;1.52;;
18610;SDS011;9435;52.122;5.502;2023-09-19T12:12:09;9.30;;;1.63;;
18610;SDS011;9435;52.122;5.502;2023-09-19T12:14:37;6.97;;;1.45;;
18610;SDS011;9435;52.122;5.502;2023-09-19T12:17:07;7.00;;;1.40;;
18610;SDS011;9435;52.122;5.502;2023-09-19T12:19:34;7.60;;;1.35;;
18610;SDS011;9435;52.122;5.502;2023-09-19T12:22:03;7.40;;;1.33;;
18610;SDS011;9435;52.122;5.502;2023-09-19T12:24:31;6.00;;;1.35;;
18610;SDS011;9435;52.122;5.502;2023-09-19T12:27:00;5.28;;;1.35;;
18610;SDS011;9435;52.122;5.502;2023-09-19T12:29:30;8.18;;;1.60;;
18610;SDS011;9435;52.122;5.502;2023-09-19T12:31:59;6.05;;;1.15;;
18610;SDS011;9435;52.122;5.502;2023-09-19T12:34:29;8.38;;;1.13;;
18610;SDS011;9435;52.122;5.502;2023-09-19T12:37:10;7.43;;;1.30;;
18610;SDS011;9435;52.122;5.502;2023-09-19T12:39:41;8.07;;;1.58;;
18610;SDS011;9435;52.122;5.502;2023-09-19T12:42:12;4.32;;;1.20;;
18610;SDS011;9435;52.122;5.502;2023-09-19T12:44:40;4.55;;;1.02;;
18610;SDS011;9435;52.122;5.502;2023-09-19T12:47:10;6.32;;;1.30;;
18610;SDS011;9435;52.122;5.502;2023-09-19T12:52:40;7.68;;;1.25;;
18610;SDS011;9435;52.122;5.502;2023-09-19T12:55:19;6.35;;;1.05;;
18610;SDS011;9435;52.122;5.502;2023-09-19T12:57:58;10.07;;;1.42;;
18610;SDS011;9435;52.122;5.502;2023-09-19T13:00:33;5.10;;;1.10;;
18610;SDS011;9435;52.122;5.502;2023-09-19T13:03:17;7.78;;;1.10;;
18610;SDS011;9435;52.122;5.502;2023-09-19T13:05:50;6.72;;;1.40;;
18610;SDS011;9435;52.122;5.502;2023-09-19T13:08:25;7.20;;;1.45;;
18610;SDS011;9435;52.122;5.502;2023-09-19T13:11:04;6.68;;;1.02;;
18610;SDS011;9435;52.122;5.502;2023-09-19T13:13:40;4.80;;;1.15;;
18610;SDS011;9435;52.122;5.502;2023-09-19T13:16:10;6.50;;;1.13;;
18610;SDS011;9435;52.122;5.502;2023-09-19T13:18:43;5.28;;;1.08;;
18610;SDS011;9435;52.122;5.502;2023-09-19T13:21:12;3.10;;;1.10;;
18610;SDS011;9435;52.122;5.502;2023-09-19T13:23:49;6.95;;;1.25;;
18610;SDS011;9435;52.122;5.502;2023-09-19T13:26:17;4.70;;;1.10;;
18610;SDS011;9435;52.122;5.502;2023-09-19T13:28:44;9.40;;;1.40;;
18610;SDS011;9435;52.122;5.502;2023-09-19T13:31:13;4.35;;;1.00;;
18610;SDS011;9435;52.122;5.502;2023-09-19T13:33:43;5.43;;;1.35;;
18610;SDS011;9435;52.122;5.502;2023-09-19T13:36:11;3.70;;;0.98;;
18610;SDS011;9435;52.122;5.502;2023-09-19T13:38:39;7.68;;;1.15;;
18610;SDS011;9435;52.122;5.502;2023-09-19T13:41:10;7.53;;;1.27;;
18610;SDS011;9435;52.122;5.502;2023-09-19T13:43:37;6.85;;;1.20;;
18610;SDS011;9435;52.122;5.502;2023-09-19T13:46:05;6.15;;;1.20;;
18610;SDS011;9435;52.122;5.502;2023-09-19T13:48:37;4.70;;;1.02;;
18610;SDS011;9435;52.122;5.502;2023-09-19T13:51:04;6.55;;;1.20;;
18610;SDS011;9435;52.122;5.502;2023-09-19T13:53:31;7.53;;;1.25;;
18610;SDS011;9435;52.122;5.502;2023-09-19T13:55:59;4.68;;;1.05;;
18610;SDS011;9435;52.122;5.502;2023-09-19T13:58:27;7.15;;;1.40;;
18610;SDS011;9435;52.122;5.502;2023-09-19T14:00:56;7.05;;;1.30;;
18610;SDS011;9435;52.122;5.502;2023-09-19T14:03:25;4.88;;;1.00;;
18610;SDS011;9435;52.122;5.502;2023-09-19T14:05:53;3.67;;;1.08;;
18610;SDS011;9435;52.122;5.502;2023-09-19T14:08:20;5.13;;;1.17;;
18610;SDS011;9435;52.122;5.502;2023-09-19T14:10:48;5.63;;;1.00;;
18610;SDS011;9435;52.122;5.502;2023-09-19T14:13:16;9.35;;;1.25;;
18610;SDS011;9435;52.122;5.502;2023-09-19T14:15:44;5.05;;;0.98;;
18610;SDS011;9435;52.122;5.502;2023-09-19T14:18:11;5.82;;;1.00;;
18610;SDS011;9435;52.122;5.502;2023-09-19T14:20:38;7.32;;;1.20;;
18610;SDS011;9435;52.122;5.502;2023-09-19T14:23:07;5.10;;;1.20;;
18610;SDS011;9435;52.122;5.502;2023-09-19T14:25:34;5.85;;;1.40;;
18610;SDS011;9435;52.122;5.502;2023-09-19T14:28:03;8.63;;;1.40;;
18610;SDS011;9435;52.122;5.502;2023-09-19T14:30:32;12.10;;;1.30;;
18610;SDS011;9435;52.122;5.502;2023-09-19T14:33:00;8.18;;;1.20;;
18610;SDS011;9435;52.122;5.502;2023-09-19T14:35:28;7.30;;;1.30;;
18610;SDS011;9435;52.122;5.502;2023-09-19T14:37:55;6.82;;;1.40;;
18610;SDS011;9435;52.122;5.502;2023-09-19T14:40:22;5.07;;;1.20;;
18610;SDS011;9435;52.122;5.502;2023-09-19T14:42:50;9.10;;;1.50;;
18610;SDS011;9435;52.122;5.502;2023-09-19T14:45:18;5.50;;;1.45;;
18610;SDS011;9435;52.122;5.502;2023-09-19T14:47:45;9.65;;;1.40;;
18610;SDS011;9435;52.122;5.502;2023-09-19T14:50:14;4.80;;;1.50;;
18610;SDS011;9435;52.122;5.502;2023-09-19T14:52:41;8.00;;;1.67;;
18610;SDS011;9435;52.122;5.502;2023-09-19T14:55:09;4.70;;;1.40;;
18610;SDS011;9435;52.122;5.502;2023-09-19T14:57:39;6.40;;;1.33;;
18610;SDS011;9435;52.122;5.502;2023-09-19T15:00:10;4.88;;;1.33;;
18610;SDS011;9435;52.122;5.502;2023-09-19T15:02:38;8.90;;;1.48;;
18610;SDS011;9435;52.122;5.502;2023-09-19T15:05:06;5.00;;;1.48;;
18610;SDS011;9435;52.122;5.502;2023-09-19T15:07:36;4.88;;;1.45;;
18610;SDS011;9435;52.122;5.502;2023-09-19T15:10:04;7.90;;;1.58;;
18610;SDS011;9435;52.122;5.502;2023-09-19T15:12:34;7.72;;;1.80;;
18610;SDS011;9435;52.122;5.502;2023-09-19T15:15:03;5.85;;;1.80;;
18610;SDS011;9435;52.122;5.502;2023-09-19T15:17:32;8.48;;;1.83;;
18610;SDS011;9435;52.122;5.502;2023-09-19T15:19:59;5.50;;;1.70;;
18610;SDS011;9435;52.122;5.502;2023-09-19T15:22:27;6.50;;;1.75;;
18610;SDS011;9435;52.122;5.502;2023-09-19T15:24:55;7.40;;;1.60;;
18610;SDS011;9435;52.122;5.502;2023-09-19T15:27:23;6.28;;;1.80;;